Pagrindinis puslapis
METAR-TAF:

METAR-TAF

Oro uostai :

Valensija, Venesuela

platuma: 10-10N, ilguma: 067-56W, Aukštis: 430 m

Dabartinis oras

Ataskaita buvo paskelbta 1 valandą ir 39 minutes, ne 15:00 UTC
Temperatūra 30°C
Drėgmė 59%
Slėgis 1016 hPa
Matomumas 10 km arba daugiau
Išsisklaidę debesys ne aukštis 1600 ft
Su prošvaistėmis ne aukštis 25000 ft

METAR: SVVA 221500Z /////KT 9999 SCT016 BKN250 30/21 Q1016

Laikas: 12:39 (16:39 UTC)

Prognozė

Ataskaita buvo paskelbta 5 valandos ir 9 minutes, ne 11:30 UTC
Prognozė galioja nuo 22 metu 12 UTC su 23 metu 12 UTC
Vėjas 4 kt iš Rytų
Matomumas 10 km arba daugiau
Mažai debesys ne aukštis 2000 ft
Laikinai
nuo 22 metu 16 UTC su 22 metu 20 UTC
Vėjas 6 kt iš Šiaurės Vakarų
Su prošvaistėmis ne aukštis 1600 ft

TAF: SVVA 221130Z 2212/2312 09004KT 9999 FEW020 TX30/2219 TN23/2307 TEMPO 2216/2220 31006KT BKN016

Orai ataskaitas ir orų prognozės (METAR, TAF).

turimą stotys yra geltonos ir raudonos taškus žemėlapyje.

Perkelti pele per norėdami pamatyti stoties vardą.

Tada spustelėkite, norėdami matyti oro stebėjimo ir prognozės.

Norėdami pakeisti žemėlapį: spustelėkite ant žalios mygtukų su juodo kryžiaus žemyn,; žalią mygtuką su brūkšneliu, jei norite nutolinti; arba žalių rodyklių gretimoms žemėlapius.


METAR-TAF: